Time;durP1;ratioP1;P1;durP2;ratioP2;P2;SDS_P1;SDS_P2;PMS_P1;PMS_P2;Temp;Humidity;BMP_temperature;BMP_pressure;BME280_temperature;BME280_humidity;BME280_pressure;Samples;Min_cycle;Max_cycle;Signal;HPM_P1;HPM_P2
2022/01/06 00:00:29;;;;;;;9.33;3.43;;;3.60;99.90;;;;;;5051871;28;20416;-59
2022/01/06 00:02:56;;;;;;;9.57;3.35;;;3.60;99.90;;;;;;5071072;28;21027;-59
2022/01/06 00:05:22;;;;;;;14.30;3.88;;;3.60;99.90;;;;;;5060126;28;20478;-60
2022/01/06 00:07:48;;;;;;;11.18;3.60;;;3.70;99.90;;;;;;5060904;28;20870;-60
2022/01/06 00:10:14;;;;;;;11.05;4.20;;;3.90;99.90;;;;;;5052207;28;20523;-60
2022/01/06 00:12:50;;;;;;;10.13;3.65;;;4.00;99.90;;;;;;5051428;28;20887;-59
2022/01/06 00:15:42;;;;;;;8.52;3.45;;;4.00;99.90;;;;;;5070613;28;20402;-59
2022/01/06 00:25:44;;;;;;;10.55;3.72;;;3.90;99.90;;;;;;5055191;28;20890;-60
2022/01/06 00:28:10;;;;;;;13.80;4.60;;;3.80;99.90;;;;;;5054174;28;20451;-60
2022/01/06 00:30:36;;;;;;;10.02;4.07;;;3.70;99.90;;;;;;5060941;28;20387;-60
2022/01/06 00:33:01;;;;;;;12.17;4.10;;;3.70;99.90;;;;;;5069552;28;20437;-59
2022/01/06 00:35:27;;;;;;;11.55;3.85;;;4.00;99.90;;;;;;5069829;28;20754;-59
2022/01/06 00:37:52;;;;;;;9.50;3.60;;;3.70;99.90;;;;;;5070858;28;20813;-60
2022/01/06 00:40:18;;;;;;;13.07;4.20;;;3.70;99.90;;;;;;5065979;28;20486;-59
2022/01/06 00:42:44;;;;;;;13.10;4.13;;;4.80;99.90;;;;;;5066686;28;20392;-60
2022/01/06 00:45:09;;;;;;;15.27;4.15;;;3.70;99.90;;;;;;5072006;28;20406;-60
2022/01/06 00:47:35;;;;;;;9.63;3.92;;;3.80;99.90;;;;;;5066482;28;20413;-60
2022/01/06 00:50:01;;;;;;;10.67;3.47;;;3.80;99.90;;;;;;5082921;28;20812;-62
2022/01/06 00:52:26;;;;;;;15.02;4.18;;;3.80;99.90;;;;;;5081998;28;20391;-61
2022/01/06 00:54:52;;;;;;;12.20;4.30;;;3.90;99.90;;;;;;5083114;28;20412;-62
2022/01/06 00:57:17;;;;;;;11.43;3.97;;;3.80;99.90;;;;;;5071080;28;20977;-58
2022/01/06 00:59:43;;;;;;;9.20;3.65;;;3.90;99.90;;;;;;5065568;28;20409;-63
2022/01/06 01:02:09;;;;;;;9.80;3.50;;;3.90;99.90;;;;;;5085188;28;20772;-62
2022/01/06 01:04:34;;;;;;;11.13;3.80;;;3.80;99.90;;;;;;5071704;28;20380;-60
2022/01/06 01:07:00;;;;;;;10.77;3.40;;;3.80;99.90;;;;;;5083765;28;20382;-60
2022/01/06 01:09:26;;;;;;;11.05;3.78;;;3.90;99.90;;;;;;5073096;28;20394;-60
2022/01/06 01:11:53;;;;;;;12.57;4.10;;;3.90;99.90;;;;;;5057802;28;20472;-61
2022/01/06 01:14:26;;;;;;;8.15;3.17;;;3.90;99.90;;;;;;5082815;28;20411;-59
2022/01/06 01:16:55;;;;;;;12.13;3.40;;;3.90;99.90;;;;;;5082809;28;20445;-61
2022/01/06 01:19:22;;;;;;;13.00;3.72;;;3.80;99.90;;;;;;5073972;28;20511;-59
2022/01/06 01:21:48;;;;;;;10.55;3.70;;;3.80;99.90;;;;;;5075429;28;20803;-60
2022/01/06 01:24:13;;;;;;;10.55;3.58;;;3.90;99.90;;;;;;5070270;28;20391;-60
2022/01/06 01:26:39;;;;;;;12.23;3.75;;;3.90;99.90;;;;;;5051670;28;20972;-60
2022/01/06 01:29:09;;;;;;;9.90;4.30;;;5.40;99.90;;;;;;5051987;28;20417;-60
2022/01/06 01:31:42;;;;;;;9.93;3.70;;;5.70;99.90;;;;;;5057994;28;20882;-61
2022/01/06 01:34:09;;;;;;;14.23;3.90;;;3.80;99.90;;;;;;5061278;28;20376;-60
2022/01/06 01:36:36;;;;;;;11.05;4.10;;;3.70;99.90;;;;;;5069378;28;20465;-61
2022/01/06 01:39:01;;;;;;;11.45;3.40;;;3.70;99.90;;;;;;5069888;28;20757;-60
2022/01/06 01:41:27;;;;;;;8.15;3.58;;;3.70;99.90;;;;;;5069453;28;20407;-60
2022/01/06 01:43:56;;;;;;;10.50;3.97;;;5.30;99.90;;;;;;5070277;28;20383;-60
2022/01/06 01:46:29;;;;;;;9.98;4.20;;;4.90;99.90;;;;;;5069486;28;20380;-61
2022/01/06 01:51:41;;;;;;;8.95;3.58;;;4.10;99.90;;;;;;5069609;28;20378;-61
2022/01/06 01:54:07;;;;;;;11.73;3.70;;;3.60;99.90;;;;;;5069935;28;20406;-60
2022/01/06 01:56:33;;;;;;;11.73;4.10;;;3.60;99.90;;;;;;5078198;28;20911;-60
2022/01/06 01:58:58;;;;;;;12.70;4.30;;;3.60;99.90;;;;;;5090333;28;20545;-61
2022/01/06 02:01:24;;;;;;;8.57;3.70;;;3.70;99.90;;;;;;5089788;28;20397;-60
2022/01/06 02:03:50;;;;;;;10.65;4.03;;;3.70;99.90;;;;;;5082936;28;20443;-60
2022/01/06 02:06:15;;;;;;;14.17;4.30;;;3.80;99.90;;;;;;5069826;28;20391;-60
2022/01/06 02:08:41;;;;;;;9.73;4.03;;;3.80;99.90;;;;;;5051112;28;20804;-59
2022/01/06 02:11:07;;;;;;;10.57;4.03;;;3.80;99.90;;;;;;5069903;28;20470;-62
2022/01/06 02:13:32;;;;;;;9.00;3.87;;;3.80;99.90;;;;;;5068932;28;20482;-61
2022/01/06 02:16:00;;;;;;;10.38;4.18;;;3.80;99.90;;;;;;5069680;28;20395;-61
2022/01/06 02:18:28;;;;;;;13.30;4.50;;;3.70;99.90;;;;;;5068908;28;20412;-60
2022/01/06 02:20:54;;;;;;;11.73;4.47;;;3.70;99.90;;;;;;5069554;28;20466;-60
2022/01/06 02:23:23;;;;;;;10.57;4.05;;;3.70;99.90;;;;;;5069286;28;20439;-60
2022/01/06 02:25:49;;;;;;;13.10;4.20;;;3.70;99.90;;;;;;5069803;28;20380;-60
2022/01/06 02:28:18;;;;;;;12.33;4.30;;;3.70;99.90;;;;;;5051340;28;20414;-61
2022/01/06 02:30:51;;;;;;;9.15;3.90;;;3.70;99.90;;;;;;5069096;28;20386;-60
2022/01/06 02:33:19;;;;;;;12.55;4.75;;;3.70;99.90;;;;;;5069512;28;20471;-61
2022/01/06 02:35:47;;;;;;;10.40;3.97;;;3.80;99.90;;;;;;5068784;28;20395;-61
2022/01/06 02:38:12;;;;;;;11.00;3.90;;;3.80;99.90;;;;;;5067647;28;20510;-61
2022/01/06 02:40:39;;;;;;;10.67;3.60;;;3.70;99.90;;;;;;5061850;28;20760;-61
2022/01/06 02:43:06;;;;;;;12.30;4.20;;;3.70;99.90;;;;;;5049556;28;20421;-61
2022/01/06 02:45:33;;;;;;;10.97;3.80;;;3.80;99.90;;;;;;5048790;28;20446;-60
2022/01/06 02:48:00;;;;;;;14.90;4.70;;;3.70;99.90;;;;;;5048987;28;20382;-61
2022/01/06 02:50:27;;;;;;;8.95;4.00;;;3.80;99.90;;;;;;5047744;28;20381;-60
2022/01/06 02:52:53;;;;;;;9.60;3.83;;;3.90;99.90;;;;;;5047717;28;20393;-61
2022/01/06 02:55:19;;;;;;;16.80;3.80;;;3.90;99.90;;;;;;5031242;28;20400;-61
2022/01/06 02:57:45;;;;;;;11.13;3.92;;;3.90;99.90;;;;;;5048714;28;20469;-61
2022/01/06 03:00:14;;;;;;;11.18;4.13;;;3.80;99.90;;;;;;5049174;28;20402;-60
2022/01/06 03:02:43;;;;;;;12.95;4.13;;;3.90;99.90;;;;;;5048594;28;20377;-60
2022/01/06 03:05:10;;;;;;;10.98;3.70;;;3.90;99.90;;;;;;5049259;28;20389;-61
2022/01/06 03:07:36;;;;;;;12.35;4.38;;;3.90;99.90;;;;;;5048590;28;20388;-61
2022/01/06 03:10:06;;;;;;;12.70;4.57;;;4.40;99.90;;;;;;5049037;28;20394;-61
2022/01/06 03:12:39;;;;;;;10.80;3.70;;;4.10;99.90;;;;;;5030413;28;20394;-62
2022/01/06 03:15:20;;;;;;;13.93;4.10;;;3.80;99.90;;;;;;5048558;28;20965;-61
2022/01/06 03:17:50;;;;;;;11.30;4.40;;;3.60;99.90;;;;;;5048221;28;20382;-59
2022/01/06 03:20:17;;;;;;;13.80;4.60;;;3.60;99.90;;;;;;5058563;28;20795;-61
2022/01/06 03:22:43;;;;;;;11.20;4.23;;;3.60;99.90;;;;;;5060681;28;20375;-61
2022/01/06 03:25:11;;;;;;;8.60;4.13;;;4.50;99.90;;;;;;5068899;28;20384;-59
2022/01/06 03:27:37;;;;;;;13.93;4.53;;;4.90;99.90;;;;;;5067927;28;20448;-61
2022/01/06 03:30:04;;;;;;;11.98;4.30;;;4.10;99.90;;;;;;5068769;28;20383;-60
2022/01/06 03:32:30;;;;;;;10.45;4.50;;;3.60;99.90;;;;;;5068274;28;20406;-61
2022/01/06 03:34:55;;;;;;;12.25;4.57;;;3.50;99.90;;;;;;5051214;28;20391;-61
2022/01/06 03:37:21;;;;;;;10.53;4.50;;;3.50;99.90;;;;;;5068248;28;20376;-60
2022/01/06 03:39:47;;;;;;;12.75;4.60;;;3.60;99.90;;;;;;5068250;28;20410;-61
2022/01/06 03:42:13;;;;;;;12.53;4.87;;;3.50;99.90;;;;;;5068715;28;20384;-61
2022/01/06 03:44:38;;;;;;;12.98;4.60;;;3.60;99.90;;;;;;5068407;28;20438;-61
2022/01/06 03:47:05;;;;;;;12.57;5.10;;;3.60;99.90;;;;;;5068824;28;20412;-61
2022/01/06 03:49:31;;;;;;;12.27;5.20;;;3.60;99.90;;;;;;5067795;28;20446;-60
2022/01/06 03:51:56;;;;;;;13.90;4.90;;;3.90;99.90;;;;;;5068706;28;20864;-61
2022/01/06 03:54:22;;;;;;;14.43;4.90;;;3.70;99.90;;;;;;5068080;28;20463;-61
2022/01/06 03:56:49;;;;;;;10.93;4.70;;;3.70;99.90;;;;;;5068250;28;20503;-61
2022/01/06 03:59:18;;;;;;;11.13;5.00;;;3.60;99.90;;;;;;5068192;28;20835;-61
2022/01/06 04:01:45;;;;;;;14.43;4.70;;;3.60;99.90;;;;;;5070711;28;20375;-61
2022/01/06 04:04:13;;;;;;;10.80;4.72;;;3.70;99.90;;;;;;5072062;28;20429;-61
2022/01/06 04:06:39;;;;;;;11.38;4.50;;;3.70;99.90;;;;;;5071184;28;20387;-61
2022/01/06 04:09:05;;;;;;;10.10;4.82;;;3.70;99.90;;;;;;5072046;28;20387;-62
2022/01/06 04:11:31;;;;;;;14.83;5.17;;;3.70;99.90;;;;;;5070738;28;20441;-61
2022/01/06 04:13:57;;;;;;;16.00;5.13;;;3.80;99.90;;;;;;5071702;28;20449;-61
2022/01/06 04:16:25;;;;;;;10.97;4.50;;;4.90;99.90;;;;;;5071756;28;20524;-60
2022/01/06 04:18:50;;;;;;;10.25;4.38;;;3.80;99.90;;;;;;5071598;28;20420;-61
2022/01/06 04:21:16;;;;;;;14.40;5.10;;;3.60;99.90;;;;;;5071696;28;20409;-61
2022/01/06 04:23:43;;;;;;;11.13;4.95;;;4.60;99.90;;;;;;5071124;28;20375;-61
2022/01/06 04:26:09;;;;;;;13.88;5.10;;;3.70;99.90;;;;;;5071934;28;20490;-61
2022/01/06 04:28:36;;;;;;;11.25;4.88;;;3.70;99.90;;;;;;5070415;28;20471;-62
2022/01/06 04:31:01;;;;;;;13.30;5.17;;;3.70;99.90;;;;;;5053553;28;20481;-61
2022/01/06 04:33:27;;;;;;;14.52;4.93;;;3.60;99.90;;;;;;5070719;28;20376;-60
2022/01/06 04:35:53;;;;;;;12.35;4.65;;;3.60;99.90;;;;;;5071294;28;20380;-60
2022/01/06 04:38:21;;;;;;;12.50;5.37;;;3.60;99.90;;;;;;5066172;28;20396;-60
2022/01/06 04:40:47;;;;;;;16.17;5.43;;;3.50;99.90;;;;;;5056396;28;20462;-61
2022/01/06 04:43:13;;;;;;;9.48;4.20;;;3.50;99.90;;;;;;5059696;28;20528;-61
2022/01/06 04:45:39;;;;;;;11.10;4.77;;;3.50;99.90;;;;;;5050130;28;20433;-61
2022/01/06 04:48:04;;;;;;;15.18;5.00;;;3.60;99.90;;;;;;5051249;28;20386;-60
2022/01/06 04:50:30;;;;;;;13.77;5.70;;;3.60;99.90;;;;;;5050448;28;20382;-60
2022/01/06 04:52:57;;;;;;;11.50;4.90;;;3.60;99.90;;;;;;5050857;28;20396;-60
2022/01/06 04:55:22;;;;;;;13.50;4.95;;;3.70;99.90;;;;;;5050720;28;20467;-60
2022/01/06 04:57:48;;;;;;;13.25;5.15;;;3.70;99.90;;;;;;5050913;28;20409;-61
2022/01/06 05:00:14;;;;;;;16.33;5.40;;;3.90;99.90;;;;;;5051323;28;20758;-61
2022/01/06 05:02:40;;;;;;;14.07;5.63;;;3.60;99.90;;;;;;5050407;28;20397;-60
2022/01/06 05:05:05;;;;;;;15.23;5.30;;;3.50;99.90;;;;;;5051388;28;20389;-60
2022/01/06 05:07:32;;;;;;;12.20;5.33;;;3.50;99.90;;;;;;5049965;28;20737;-60
2022/01/06 05:09:58;;;;;;;12.13;5.18;;;3.40;99.90;;;;;;5057442;28;20445;-60
2022/01/06 05:12:23;;;;;;;12.40;4.60;;;3.50;99.90;;;;;;5055300;28;20389;-60
2022/01/06 05:14:49;;;;;;;11.37;4.60;;;3.60;99.90;;;;;;5058984;28;20791;-61
2022/01/06 05:17:14;;;;;;;14.55;5.25;;;3.60;99.90;;;;;;5050731;28;20742;-61
2022/01/06 05:19:40;;;;;;;14.80;5.37;;;4.20;99.90;;;;;;5050159;28;20448;-61
2022/01/06 05:22:06;;;;;;;12.20;5.25;;;3.70;99.90;;;;;;5050799;28;20377;-61
2022/01/06 05:24:33;;;;;;;12.30;5.00;;;4.10;99.90;;;;;;5049867;28;20469;-60
2022/01/06 05:27:04;;;;;;;13.38;5.00;;;3.70;99.90;;;;;;5050588;28;20393;-60
2022/01/06 05:29:30;;;;;;;11.93;4.80;;;3.70;99.90;;;;;;5049950;28;20468;-59
2022/01/06 05:31:56;;;;;;;14.63;5.20;;;3.70;99.90;;;;;;5050740;28;20399;-60
2022/01/06 05:34:22;;;;;;;11.80;4.60;;;3.60;99.90;;;;;;5050906;28;20455;-62
2022/01/06 05:36:48;;;;;;;14.60;4.60;;;3.80;99.90;;;;;;5049517;28;20443;-62
2022/01/06 05:39:16;;;;;;;11.63;4.35;;;3.70;99.90;;;;;;5050454;28;20801;-60
2022/01/06 05:41:42;;;;;;;14.30;4.43;;;3.70;99.90;;;;;;5052182;28;20410;-60
2022/01/06 05:44:07;;;;;;;12.82;4.55;;;3.80;99.90;;;;;;5065482;28;20895;-61
2022/01/06 05:46:33;;;;;;;14.15;4.72;;;3.70;99.90;;;;;;5062227;28;20920;-60
2022/01/06 05:48:59;;;;;;;10.70;4.40;;;3.60;99.90;;;;;;5050142;28;20903;-61
2022/01/06 05:51:24;;;;;;;15.40;5.10;;;5.00;99.90;;;;;;5049863;28;20531;-60
2022/01/06 05:53:51;;;;;;;13.53;4.87;;;3.50;99.90;;;;;;5049495;28;20382;-61
2022/01/06 05:56:17;;;;;;;10.65;4.43;;;3.60;99.90;;;;;;5052008;28;20506;-61
2022/01/06 05:58:42;;;;;;;11.57;4.30;;;3.70;99.90;;;;;;5051634;28;20796;-61
2022/01/06 06:01:08;;;;;;;12.20;4.43;;;3.70;99.90;;;;;;5056251;28;20452;-61
2022/01/06 06:03:35;;;;;;;10.57;4.60;;;3.80;99.90;;;;;;5069297;28;20374;-60
2022/01/06 06:06:01;;;;;;;10.55;5.00;;;3.80;99.90;;;;;;5069491;28;20741;-60
2022/01/06 06:08:27;;;;;;;12.90;5.40;;;3.70;99.90;;;;;;5069006;28;20372;-60
2022/01/06 06:10:53;;;;;;;12.23;4.88;;;4.90;99.90;;;;;;5069727;28;20467;-60
2022/01/06 06:13:19;;;;;;;11.53;4.70;;;3.80;99.90;;;;;;5069784;28;20447;-60
2022/01/06 06:15:44;;;;;;;11.97;4.43;;;3.70;99.90;;;;;;5068983;28;20411;-60
2022/01/06 06:18:11;;;;;;;13.47;4.80;;;3.70;99.90;;;;;;5069535;28;20463;-61
2022/01/06 06:20:40;;;;;;;11.48;5.25;;;3.90;99.90;;;;;;5068974;28;20384;-60
2022/01/06 06:23:06;;;;;;;13.83;4.50;;;3.70;99.90;;;;;;5069106;28;20391;-60
2022/01/06 06:25:33;;;;;;;14.45;5.00;;;3.70;99.90;;;;;;5068507;28;20402;-59
2022/01/06 06:27:59;;;;;;;12.00;4.53;;;3.70;99.90;;;;;;5060926;28;20482;-59
2022/01/06 06:30:25;;;;;;;10.45;4.20;;;3.70;99.90;;;;;;5049468;28;20977;-59
2022/01/06 06:32:50;;;;;;;16.38;5.00;;;3.70;99.90;;;;;;5049317;28;20472;-59
2022/01/06 06:35:16;;;;;;;13.77;4.90;;;3.70;99.90;;;;;;5049619;28;20442;-59
2022/01/06 06:37:42;;;;;;;13.23;4.95;;;4.20;99.90;;;;;;5048800;28;20377;-59
2022/01/06 06:40:08;;;;;;;15.67;5.30;;;3.70;99.90;;;;;;5049515;28;20437;-58
2022/01/06 06:42:34;;;;;;;10.40;4.68;;;3.70;99.90;;;;;;5047360;28;20764;-59
2022/01/06 06:45:00;;;;;;;11.27;4.70;;;3.60;99.90;;;;;;5048936;28;20493;-59
2022/01/06 06:47:25;;;;;;;14.82;4.70;;;3.80;99.90;;;;;;5061137;28;20384;-58
2022/01/06 06:49:52;;;;;;;13.82;5.25;;;3.50;99.90;;;;;;5068968;28;20466;-59
2022/01/06 06:52:17;;;;;;;13.07;5.80;;;3.50;99.90;;;;;;5069015;28;20379;-60
2022/01/06 06:54:43;;;;;;;14.82;6.63;;;3.50;99.90;;;;;;5069013;28;20442;-61
2022/01/06 06:57:09;;;;;;;14.30;5.53;;;3.50;99.90;;;;;;5068881;28;20433;-61
2022/01/06 06:59:36;;;;;;;11.77;5.80;;;3.40;99.90;;;;;;5058168;28;20491;-60
2022/01/06 07:02:02;;;;;;;12.57;5.57;;;4.80;99.90;;;;;;5060419;28;20468;-59
2022/01/06 07:04:27;;;;;;;12.80;5.40;;;3.40;99.90;;;;;;5059104;28;20400;-58
2022/01/06 07:06:53;;;;;;;16.70;6.07;;;3.40;99.90;;;;;;5066918;28;20419;-59
2022/01/06 07:09:18;;;;;;;13.60;6.07;;;3.30;99.90;;;;;;5067297;28;20428;-60
2022/01/06 07:11:44;;;;;;;13.37;5.80;;;3.30;99.90;;;;;;5068177;28;20391;-60
2022/01/06 07:14:09;;;;;;;13.80;5.38;;;3.30;99.90;;;;;;5058793;28;20407;-59
2022/01/06 07:16:35;;;;;;;16.73;6.20;;;3.30;99.90;;;;;;5068316;28;20384;-61
2022/01/06 07:19:01;;;;;;;16.17;5.70;;;4.40;99.90;;;;;;5069891;28;20458;-61
2022/01/06 07:21:26;;;;;;;16.83;6.70;;;3.40;99.90;;;;;;5053767;28;20412;-59
2022/01/06 07:23:52;;;;;;;14.60;6.00;;;3.30;99.90;;;;;;5063980;28;20413;-60
2022/01/06 07:26:18;;;;;;;12.88;6.07;;;4.50;99.90;;;;;;5083661;28;20390;-60
2022/01/06 07:28:44;;;;;;;9.68;5.03;;;3.30;99.90;;;;;;5068214;28;20411;-59
2022/01/06 07:31:11;;;;;;;14.73;6.25;;;3.30;99.90;;;;;;5059788;28;20391;-59
2022/01/06 07:33:36;;;;;;;17.20;6.18;;;3.20;99.90;;;;;;5062528;28;20842;-59
2022/01/06 07:36:02;;;;;;;15.77;6.90;;;3.20;99.90;;;;;;5059890;28;20396;-59
2022/01/06 07:38:28;;;;;;;14.68;6.30;;;3.20;99.90;;;;;;5058095;28;20869;-58
2022/01/06 07:40:55;;;;;;;18.77;6.07;;;3.10;99.90;;;;;;5067338;28;20387;-59
2022/01/06 07:43:21;;;;;;;17.10;6.50;;;3.10;99.90;;;;;;5064541;28;20497;-59
2022/01/06 07:45:48;;;;;;;14.57;6.18;;;3.10;99.90;;;;;;5041608;28;20413;-59
2022/01/06 07:48:25;;;;;;;14.98;5.78;;;4.00;99.90;;;;;;5064494;28;20396;-59
2022/01/06 07:50:51;;;;;;;16.65;6.95;;;3.10;99.90;;;;;;5080381;28;20415;-59
2022/01/06 07:53:16;;;;;;;16.85;7.20;;;3.20;99.90;;;;;;5054136;28;20430;-59
2022/01/06 07:55:42;;;;;;;19.75;6.95;;;3.30;99.90;;;;;;5066115;28;20411;-59
2022/01/06 07:58:08;;;;;;;14.90;6.40;;;4.20;99.90;;;;;;5054315;28;20475;-59
2022/01/06 08:00:33;;;;;;;16.05;6.60;;;3.20;99.90;;;;;;5050331;28;20914;-59
2022/01/06 08:02:59;;;;;;;16.25;6.10;;;3.30;99.90;;;;;;5055281;28;20390;-59
2022/01/06 08:05:27;;;;;;;16.70;7.10;;;3.30;99.90;;;;;;5056026;28;20392;-58
2022/01/06 08:07:53;;;;;;;14.73;6.65;;;3.30;99.90;;;;;;5064293;28;20389;-59
2022/01/06 08:10:19;;;;;;;17.60;6.50;;;3.20;99.90;;;;;;5049906;28;20798;-59
2022/01/06 08:12:45;;;;;;;14.30;7.65;;;5.00;99.90;;;;;;5053785;28;20386;-59
2022/01/06 08:15:11;;;;;;;15.75;6.30;;;4.70;99.90;;;;;;5055558;28;20417;-60
2022/01/06 08:17:37;;;;;;;15.88;6.75;;;3.50;99.90;;;;;;5055087;28;20476;-59
2022/01/06 08:20:06;;;;;;;15.32;6.93;;;3.40;99.90;;;;;;5060782;28;20437;-59
2022/01/06 08:22:32;;;;;;;16.25;7.20;;;3.40;99.90;;;;;;5055662;28;20523;-59
2022/01/06 08:24:57;;;;;;;16.90;7.60;;;3.30;99.90;;;;;;5054477;28;20394;-60
2022/01/06 08:27:23;;;;;;;21.30;7.15;;;3.40;99.90;;;;;;5054500;28;20386;-59
2022/01/06 08:29:50;;;;;;;15.77;7.93;;;3.50;99.90;;;;;;5052315;28;20466;-59
2022/01/06 08:32:16;;;;;;;14.43;6.97;;;3.50;99.90;;;;;;5059538;28;20391;-60
2022/01/06 08:34:42;;;;;;;16.17;7.03;;;3.70;99.90;;;;;;5058510;28;20404;-59
2022/01/06 08:37:07;;;;;;;14.50;7.03;;;3.50;99.90;;;;;;5055921;28;20765;-60
2022/01/06 08:39:33;;;;;;;15.82;6.57;;;3.70;99.90;;;;;;5051194;28;20414;-62
2022/01/06 08:41:59;;;;;;;18.52;7.40;;;4.40;99.90;;;;;;5056301;28;20746;-59
2022/01/06 08:44:25;;;;;;;14.80;6.70;;;3.70;99.90;;;;;;5058550;28;20394;-59
2022/01/06 08:46:50;;;;;;;15.73;6.95;;;3.60;99.90;;;;;;5056921;28;20389;-59
2022/01/06 08:49:16;;;;;;;16.73;6.80;;;3.70;99.90;;;;;;5059649;28;20400;-59
2022/01/06 08:51:43;;;;;;;17.60;6.30;;;4.80;99.90;;;;;;5053440;28;20973;-59
2022/01/06 08:54:08;;;;;;;17.70;6.50;;;3.70;99.90;;;;;;5059625;28;20407;-59
2022/01/06 08:56:35;;;;;;;13.53;6.33;;;3.80;99.90;;;;;;5052141;28;20735;-59
2022/01/06 08:59:01;;;;;;;14.88;6.00;;;4.60;99.90;;;;;;5070523;28;20412;-59
2022/01/06 09:01:27;;;;;;;16.35;6.22;;;4.30;99.90;;;;;;5051832;28;20412;-58
2022/01/06 09:03:53;;;;;;;14.48;6.10;;;4.70;99.90;;;;;;5052685;28;20743;-60
2022/01/06 09:06:20;;;;;;;12.48;5.72;;;5.60;99.90;;;;;;5059322;28;20450;-59
2022/01/06 09:08:46;;;;;;;15.50;6.15;;;6.00;99.90;;;;;;5052258;28;20882;-59
2022/01/06 09:11:11;;;;;;;13.73;5.53;;;6.20;99.90;;;;;;5054677;28;20394;-59
2022/01/06 09:13:37;;;;;;;12.93;4.82;;;6.00;99.90;;;;;;5052944;28;20872;-60
2022/01/06 09:16:03;;;;;;;13.27;5.57;;;5.80;99.90;;;;;;5055279;28;20854;-60
2022/01/06 09:18:31;;;;;;;13.48;4.93;;;5.50;99.90;;;;;;5056681;28;20391;-59
2022/01/06 09:21:00;;;;;;;12.57;5.77;;;5.70;99.90;;;;;;5053160;28;20476;-60
2022/01/06 09:23:26;;;;;;;11.40;6.00;;;5.30;99.90;;;;;;5053555;28;20392;-60
2022/01/06 09:25:51;;;;;;;13.90;5.20;;;5.20;99.90;;;;;;5062888;28;20380;-60
2022/01/06 09:28:17;;;;;;;13.00;5.57;;;4.90;99.90;;;;;;5070258;28;20873;-60
2022/01/06 09:30:42;;;;;;;10.60;4.70;;;4.80;99.90;;;;;;5056601;28;20401;-59
2022/01/06 09:33:08;;;;;;;9.53;4.57;;;4.60;99.90;;;;;;5069774;28;20892;-59
2022/01/06 09:35:34;;;;;;;12.20;4.80;;;4.80;99.90;;;;;;5063306;28;20775;-60
2022/01/06 09:38:00;;;;;;;13.77;4.70;;;4.90;99.90;;;;;;5059460;28;20392;-60
2022/01/06 09:40:25;;;;;;;11.50;5.40;;;5.20;99.90;;;;;;5058731;28;20456;-59
2022/01/06 09:42:53;;;;;;;13.85;5.13;;;5.90;99.90;;;;;;5056756;28;21024;-60
2022/01/06 09:45:20;;;;;;;15.40;5.97;;;6.70;99.90;;;;;;5053529;28;20813;-60
2022/01/06 09:47:46;;;;;;;11.75;5.05;;;7.60;99.90;;;;;;5058505;28;20457;-60
2022/01/06 09:50:13;;;;;;;9.63;4.70;;;8.10;99.90;;;;;;5058985;28;20401;-61
2022/01/06 09:52:39;;;;;;;18.10;7.20;;;8.40;99.90;;;;;;5048524;28;20437;-59
2022/01/06 09:55:06;;;;;;;17.23;6.00;;;8.50;99.90;;;;;;5066553;28;20383;-60
2022/01/06 09:57:32;;;;;;;21.33;7.90;;;8.40;99.90;;;;;;5056960;28;20385;-60
2022/01/06 09:59:58;;;;;;;18.58;8.35;;;7.80;99.90;;;;;;5062397;28;20406;-60
2022/01/06 10:02:36;;;;;;;20.05;7.57;;;7.40;99.90;;;;;;5061334;28;20405;-60
2022/01/06 10:05:03;;;;;;;15.57;5.60;;;7.00;99.90;;;;;;5055348;28;20870;-61
2022/01/06 10:07:38;;;;;;;16.67;5.90;;;6.20;99.90;;;;;;5054157;28;20405;-59
2022/01/06 10:10:14;;;;;;;19.88;7.97;;;6.00;99.90;;;;;;5058619;28;20394;-61
2022/01/06 10:12:41;;;;;;;17.92;6.70;;;6.40;99.90;;;;;;5056890;28;20403;-59
2022/01/06 10:15:22;;;;;;;13.25;5.85;;;6.40;99.90;;;;;;5054897;28;20429;-59
2022/01/06 10:17:48;;;;;;;22.23;7.80;;;6.10;99.90;;;;;;5061802;28;20925;-60
2022/01/06 10:20:26;;;;;;;12.87;4.33;;;6.00;99.90;;;;;;5058771;28;20499;-60
2022/01/06 10:22:56;;;;;;;14.55;5.20;;;5.70;99.90;;;;;;5056672;28;20401;-61
2022/01/06 10:25:30;;;;;;;11.60;5.00;;;5.70;99.90;;;;;;5063225;28;21696;-60
2022/01/06 10:27:56;;;;;;;12.20;4.07;;;6.00;99.90;;;;;;5057982;28;20405;-59
2022/01/06 10:30:25;;;;;;;10.00;4.38;;;6.00;99.90;;;;;;5060774;28;20482;-60
2022/01/06 10:32:58;;;;;;;12.80;4.10;;;5.80;99.90;;;;;;5056910;28;20422;-60
2022/01/06 10:35:24;;;;;;;13.43;5.13;;;5.90;99.90;;;;;;5058247;28;20403;-61
2022/01/06 10:37:49;;;;;;;14.68;6.22;;;5.60;99.90;;;;;;5054569;28;20447;-61
2022/01/06 10:40:22;;;;;;;16.98;6.63;;;5.50;99.90;;;;;;5054579;28;20974;-62
2022/01/06 10:42:50;;;;;;;11.80;4.85;;;5.40;99.90;;;;;;5053688;28;20409;-61
2022/01/06 10:45:22;;;;;;;15.33;5.40;;;5.60;99.90;;;;;;5053805;28;20506;-59
2022/01/06 10:47:50;;;;;;;15.82;5.13;;;6.10;99.90;;;;;;5048624;28;20411;-59
2022/01/06 10:50:17;;;;;;;24.15;9.15;;;6.40;99.90;;;;;;5058344;28;20403;-66
2022/01/06 10:52:47;;;;;;;17.25;6.20;;;6.50;99.90;;;;;;5038569;28;20526;-65
2022/01/06 10:55:12;;;;;;;16.02;6.30;;;6.60;99.90;;;;;;5050134;28;21001;-65
2022/01/06 10:57:54;;;;;;;15.13;7.18;;;6.40;99.90;;;;;;5050014;28;20483;-65
2022/01/06 11:00:22;;;;;;;20.13;7.82;;;6.40;99.90;;;;;;5039912;28;20501;-64
2022/01/06 11:02:48;;;;;;;18.87;8.00;;;6.30;99.90;;;;;;5051903;28;20405;-64
2022/01/06 11:05:14;;;;;;;14.60;5.65;;;6.50;99.90;;;;;;5048062;28;20408;-65
2022/01/06 11:07:40;;;;;;;11.10;4.40;;;6.80;99.90;;;;;;5060127;28;20402;-65
2022/01/06 11:10:14;;;;;;;10.80;4.40;;;7.00;99.90;;;;;;5061924;28;20403;-65
2022/01/06 11:12:40;;;;;;;11.82;4.47;;;6.80;99.90;;;;;;5063443;28;20415;-64
2022/01/06 11:15:07;;;;;;;13.82;5.28;;;6.40;99.90;;;;;;5069174;28;20405;-65
2022/01/06 11:17:33;;;;;;;8.27;3.05;;;6.40;99.90;;;;;;5072917;28;20414;-64
2022/01/06 11:19:59;;;;;;;9.02;3.22;;;6.20;99.90;;;;;;5070788;28;20412;-65
2022/01/06 11:22:26;;;;;;;12.25;3.63;;;6.10;99.90;;;;;;5065925;28;20416;-65
2022/01/06 11:24:59;;;;;;;12.60;4.43;;;5.90;99.90;;;;;;5075092;28;20407;-65
2022/01/06 11:27:33;;;;;;;9.38;4.63;;;5.80;99.90;;;;;;5074953;28;20389;-67
2022/01/06 11:30:08;;;;;;;10.15;4.80;;;5.80;99.90;;;;;;5067294;28;20415;-65
2022/01/06 11:32:34;;;;;;;10.70;3.60;;;5.90;99.90;;;;;;5064427;28;20423;-64
2022/01/06 11:35:11;;;;;;;12.23;3.80;;;6.00;99.90;;;;;;5065419;28;20503;-63
2022/01/06 11:37:41;;;;;;;12.67;4.23;;;6.20;99.90;;;;;;5054661;28;20825;-65
2022/01/06 11:40:08;;;;;;;9.52;3.40;;;6.60;99.90;;;;;;5059992;28;20424;-65
2022/01/06 11:42:33;;;;;;;12.45;3.90;;;6.90;99.90;;;;;;5062207;28;20883;-65
2022/01/06 11:44:59;;;;;;;11.63;3.70;;;7.10;99.90;;;;;;5071125;28;20404;-63
2022/01/06 11:47:34;;;;;;;9.87;3.10;;;7.30;99.90;;;;;;5068478;28;20408;-65
2022/01/06 11:50:17;;;;;;;12.77;5.57;;;7.00;99.90;;;;;;5061214;28;20960;-64
2022/01/06 11:53:00;;;;;;;10.98;3.40;;;6.90;99.90;;;;;;5048727;28;20946;-66
2022/01/06 11:55:35;;;;;;;11.63;3.80;;;6.60;99.90;;;;;;5066121;28;20472;-63
2022/01/06 11:58:16;;;;;;;15.30;3.30;;;6.30;99.90;;;;;;5064949;28;20393;-62
2022/01/06 12:01:05;;;;;;;12.00;3.40;;;6.30;99.90;;;;;;5053470;28;20420;-63
2022/01/06 12:03:45;;;;;;;8.85;2.50;;;6.40;99.90;;;;;;5063775;28;20510;-66
2022/01/06 12:06:31;;;;;;;7.63;2.83;;;6.40;99.90;;;;;;5058697;28;20413;-65
2022/01/06 12:08:58;;;;;;;8.43;3.50;;;6.10;99.90;;;;;;5048596;28;20401;-64
2022/01/06 12:11:33;;;;;;;13.00;3.00;;;6.10;99.90;;;;;;5068693;28;20527;-64
2022/01/06 12:14:00;;;;;;;13.02;3.10;;;5.90;99.90;;;;;;5070559;28;20411;-65
2022/01/06 12:16:32;;;;;;;7.90;2.80;;;5.80;99.90;;;;;;5072716;28;20932;-65
2022/01/06 12:18:59;;;;;;;17.77;3.05;;;5.60;99.90;;;;;;5059819;28;20421;-66
2022/01/06 12:21:25;;;;;;;11.50;3.50;;;5.60;99.90;;;;;;5038617;28;20407;-66
2022/01/06 12:24:05;;;;;;;10.15;2.83;;;5.50;99.90;;;;;;5042960;28;20390;-66
2022/01/06 12:26:32;;;;;;;12.85;3.20;;;5.60;99.90;;;;;;5056970;28;20443;-67
2022/01/06 12:28:58;;;;;;;8.50;2.88;;;5.90;99.90;;;;;;5052893;28;20436;-66
2022/01/06 12:31:33;;;;;;;10.20;2.80;;;6.20;99.90;;;;;;5057478;28;20398;-65
2022/01/06 12:34:01;;;;;;;9.63;2.40;;;6.50;99.90;;;;;;5059479;28;20516;-66
2022/01/06 12:36:33;;;;;;;9.83;2.30;;;6.60;99.90;;;;;;5054760;28;20419;-65
2022/01/06 12:39:16;;;;;;;14.07;3.17;;;6.70;99.90;;;;;;5066653;28;20406;-64
2022/01/06 12:41:43;;;;;;;9.27;2.80;;;6.90;99.90;;;;;;5057619;28;20404;-63
2022/01/06 12:44:10;;;;;;;11.38;3.05;;;7.10;99.90;;;;;;5069170;28;20400;-64
2022/01/06 12:46:38;;;;;;;9.02;2.55;;;7.10;99.90;;;;;;5051086;28;20412;-64
2022/01/06 12:49:07;;;;;;;9.70;2.70;;;7.10;99.90;;;;;;5060633;28;20947;-63
2022/01/06 12:51:35;;;;;;;11.40;2.75;;;6.80;99.90;;;;;;5050550;28;20411;-65
2022/01/06 12:54:11;;;;;;;8.82;3.30;;;6.40;99.90;;;;;;5068445;28;20383;-65
2022/01/06 12:56:45;;;;;;;10.25;2.58;;;6.20;99.90;;;;;;5054196;28;20460;-64
2022/01/06 12:59:16;;;;;;;9.10;2.65;;;6.30;99.90;;;;;;5056842;28;20444;-64